Time;durP1;ratioP1;P1;durP2;ratioP2;P2;SDS_P1;SDS_P2;PMS_P1;PMS_P2;Temp;Humidity;BMP_temperature;BMP_pressure;BME280_temperature;BME280_humidity;BME280_pressure;Samples;Min_cycle;Max_cycle;Signal;HPM_P1;HPM_P2
2023/02/15 00:00:33;;;;;;;12.23;6.12;;;5.10;68.20;;;;;;2516058;54;20933;-85
2023/02/15 00:03:00;;;;;;;12.35;6.55;;;5.10;68.20;;;;;;2515872;54;21013;-84
2023/02/15 00:05:26;;;;;;;13.05;6.87;;;5.10;68.20;;;;;;2516381;54;21439;-84
2023/02/15 00:07:53;;;;;;;12.45;6.37;;;5.10;67.90;;;;;;2515645;54;20918;-84
2023/02/15 00:10:19;;;;;;;9.13;4.82;;;5.10;67.90;;;;;;2516885;54;20990;-84
2023/02/15 00:12:46;;;;;;;17.52;6.22;;;5.00;67.90;;;;;;2515994;54;22041;-84
2023/02/15 00:15:12;;;;;;;10.52;5.35;;;5.00;67.90;;;;;;2516937;54;21039;-83
2023/02/15 00:17:39;;;;;;;10.32;5.70;;;5.00;68.10;;;;;;2514713;54;20902;-84
2023/02/15 00:20:07;;;;;;;16.35;5.90;;;5.00;68.10;;;;;;2517664;54;20938;-84
2023/02/15 00:22:33;;;;;;;12.80;5.85;;;5.00;68.20;;;;;;2517864;53;20917;-84
2023/02/15 00:25:00;;;;;;;13.18;5.75;;;5.00;67.90;;;;;;2517243;54;21256;-83
2023/02/15 00:27:26;;;;;;;10.23;5.18;;;5.00;68.00;;;;;;2513890;54;20922;-84
2023/02/15 00:29:53;;;;;;;8.75;4.68;;;4.80;67.60;;;;;;2517011;54;20999;-85
2023/02/15 00:32:19;;;;;;;9.48;4.70;;;4.90;68.00;;;;;;2516109;53;20903;-84
2023/02/15 00:34:46;;;;;;;8.55;4.47;;;4.90;68.10;;;;;;2515156;54;22215;-84
2023/02/15 00:37:12;;;;;;;8.65;4.40;;;4.80;68.00;;;;;;2515536;54;20898;-84
2023/02/15 00:39:39;;;;;;;9.43;4.65;;;4.90;68.20;;;;;;2517555;53;20981;-84
2023/02/15 00:42:05;;;;;;;8.20;4.20;;;5.00;68.00;;;;;;2516274;53;21514;-83
2023/02/15 00:44:32;;;;;;;8.25;4.05;;;4.90;68.10;;;;;;2515665;54;20882;-83
2023/02/15 00:47:00;;;;;;;9.05;4.25;;;4.90;67.90;;;;;;2516960;53;20993;-84
2023/02/15 00:49:27;;;;;;;8.60;4.25;;;4.90;68.10;;;;;;2518085;54;20978;-83
2023/02/15 00:51:53;;;;;;;7.95;4.00;;;4.90;68.10;;;;;;2517145;54;20914;-85
2023/02/15 00:54:20;;;;;;;8.15;4.50;;;4.90;68.00;;;;;;2517406;53;21348;-84
2023/02/15 00:56:46;;;;;;;8.15;3.95;;;4.90;68.00;;;;;;2518380;54;20962;-84
2023/02/15 00:59:13;;;;;;;8.57;4.12;;;4.90;67.80;;;;;;2519147;54;21184;-84
2023/02/15 01:01:40;;;;;;;8.40;4.03;;;4.90;67.70;;;;;;2517042;53;21367;-84
2023/02/15 01:04:06;;;;;;;7.72;4.37;;;4.90;67.60;;;;;;2519642;54;21025;-84
2023/02/15 01:06:33;;;;;;;6.45;3.33;;;4.90;67.40;;;;;;2518608;54;21013;-83
2023/02/15 01:09:00;;;;;;;7.70;4.12;;;4.90;67.60;;;;;;2519342;54;20971;-84
2023/02/15 01:11:29;;;;;;;9.05;4.37;;;4.80;67.60;;;;;;2517682;54;20958;-84
2023/02/15 01:13:57;;;;;;;7.25;3.90;;;4.80;67.60;;;;;;2517783;54;20934;-84
2023/02/15 01:16:26;;;;;;;9.27;4.03;;;4.80;67.70;;;;;;2286532;54;21009;-84
2023/02/15 01:18:54;;;;;;;7.20;3.78;;;4.80;67.80;;;;;;2517473;54;21009;-85
2023/02/15 01:21:21;;;;;;;7.25;3.67;;;4.70;67.70;;;;;;2518257;54;21441;-84
2023/02/15 01:23:48;;;;;;;7.00;3.72;;;4.80;67.90;;;;;;2518194;53;20906;-83
2023/02/15 01:26:18;;;;;;;10.55;4.80;;;4.70;67.60;;;;;;2517859;53;21890;-83
2023/02/15 01:28:48;;;;;;;7.18;3.97;;;4.70;67.30;;;;;;2514833;54;20940;-83
2023/02/15 01:31:16;;;;;;;7.87;4.25;;;4.70;67.50;;;;;;2513310;54;20942;-82
2023/02/15 01:33:43;;;;;;;7.70;3.60;;;4.70;67.70;;;;;;2514233;54;20965;-83
2023/02/15 01:36:09;;;;;;;6.35;3.47;;;4.60;67.50;;;;;;2513423;54;21949;-83
2023/02/15 01:38:36;;;;;;;8.02;4.03;;;4.60;67.60;;;;;;2514199;54;21005;-84
2023/02/15 01:41:22;;;;;;;7.85;4.20;;;4.60;67.70;;;;;;2283948;54;20957;-81
2023/02/15 01:43:51;;;;;;;8.88;4.70;;;4.60;67.70;;;;;;2516028;54;20954;-83
2023/02/15 01:46:18;;;;;;;9.25;4.65;;;4.60;67.70;;;;;;2283689;54;20943;-82
2023/02/15 01:48:47;;;;;;;9.25;5.05;;;4.60;67.80;;;;;;2514979;54;20894;-83
2023/02/15 01:51:14;;;;;;;9.10;4.10;;;4.60;67.90;;;;;;2283566;54;21000;-82
2023/02/15 01:53:44;;;;;;;8.80;4.18;;;4.50;67.90;;;;;;2515029;54;21040;-82
2023/02/15 01:56:24;;;;;;;8.77;4.25;;;4.50;67.90;;;;;;2515358;54;21379;-83
2023/02/15 01:58:52;;;;;;;8.38;4.00;;;4.50;67.70;;;;;;2514218;54;21292;-82
2023/02/15 02:01:18;;;;;;;11.77;4.03;;;4.50;67.80;;;;;;2516679;54;20983;-83
2023/02/15 02:03:57;;;;;;;15.77;5.82;;;4.50;67.80;;;;;;2515183;54;20946;-83
2023/02/15 02:06:24;;;;;;;10.13;5.03;;;4.50;67.70;;;;;;2515953;54;21468;-83
2023/02/15 02:08:52;;;;;;;8.43;4.35;;;4.50;67.80;;;;;;2514351;54;20945;-81
2023/02/15 02:11:19;;;;;;;9.45;5.12;;;4.50;67.80;;;;;;2515287;54;20926;-83
2023/02/15 02:13:45;;;;;;;10.85;5.62;;;4.40;67.70;;;;;;2283365;54;20989;-83
2023/02/15 02:16:24;;;;;;;9.63;5.25;;;4.40;67.80;;;;;;2515559;54;20925;-83
2023/02/15 02:19:14;;;;;;;11.60;4.43;;;4.40;67.80;;;;;;2515339;54;21041;-81
2023/02/15 02:22:14;;;;;;;11.52;6.37;;;4.40;67.80;;;;;;2515989;54;20989;-83
2023/02/15 02:24:55;;;;;;;10.32;4.78;;;4.40;67.70;;;;;;2515890;54;21403;-83
2023/02/15 02:27:31;;;;;;;10.93;4.93;;;4.40;67.90;;;;;;2516723;54;20937;-83
2023/02/15 02:30:16;;;;;;;7.18;3.97;;;4.40;68.00;;;;;;2515862;54;20986;-82
2023/02/15 02:34:45;;;;;;;9.50;4.50;;;4.40;68.10;;;;;;2515816;54;20930;-83
2023/02/15 02:37:37;;;;;;;11.00;4.85;;;4.40;68.10;;;;;;2516222;54;20917;-83
2023/02/15 02:40:20;;;;;;;12.20;5.40;;;4.40;68.10;;;;;;2283340;54;21045;-82
2023/02/15 02:42:50;;;;;;;13.70;5.57;;;4.40;68.00;;;;;;2514927;54;21013;-81
2023/02/15 02:45:24;;;;;;;10.05;5.65;;;4.40;68.10;;;;;;2515265;54;21037;-83
2023/02/15 02:47:56;;;;;;;10.68;5.57;;;4.40;68.00;;;;;;2514626;54;21740;-82
2023/02/15 02:50:25;;;;;;;8.05;4.65;;;4.40;68.00;;;;;;2515348;54;20938;-83
2023/02/15 02:52:52;;;;;;;9.07;4.28;;;4.40;68.10;;;;;;2514451;54;20931;-83
2023/02/15 02:55:30;;;;;;;8.65;4.80;;;4.40;68.10;;;;;;2514832;54;21002;-83
2023/02/15 03:00:08;;;;;;;10.05;4.70;;;4.40;68.20;;;;;;2514542;54;20974;-83
2023/02/15 03:02:39;;;;;;;10.18;4.78;;;4.40;68.10;;;;;;2516182;54;21058;-83
2023/02/15 03:05:08;;;;;;;13.18;5.10;;;4.40;68.30;;;;;;2514830;54;20933;-83
2023/02/15 03:07:35;;;;;;;8.32;4.37;;;4.40;68.30;;;;;;2515724;54;21412;-83
2023/02/15 03:10:03;;;;;;;12.30;5.45;;;4.40;68.40;;;;;;2514682;54;21041;-83
2023/02/15 03:12:37;;;;;;;9.95;5.35;;;4.40;68.40;;;;;;2515519;54;20890;-82
2023/02/15 03:15:12;;;;;;;10.75;5.05;;;4.40;68.40;;;;;;2516304;54;21062;-82
2023/02/15 03:17:42;;;;;;;8.30;4.53;;;4.40;68.40;;;;;;2282874;54;20929;-83
2023/02/15 03:20:18;;;;;;;13.85;5.00;;;4.40;68.30;;;;;;2515297;54;20948;-82
2023/02/15 03:22:53;;;;;;;7.22;4.00;;;4.40;68.30;;;;;;2514888;54;20909;-82
2023/02/15 03:25:27;;;;;;;9.13;5.28;;;4.40;68.40;;;;;;2515413;54;21229;-83
2023/02/15 03:27:55;;;;;;;8.90;4.70;;;4.40;68.30;;;;;;2514322;54;20942;-83
2023/02/15 03:30:22;;;;;;;8.27;4.15;;;4.40;68.30;;;;;;2514881;54;21854;-82
2023/02/15 03:32:48;;;;;;;12.63;4.95;;;4.30;68.20;;;;;;2283068;54;21274;-83
2023/02/15 03:35:15;;;;;;;11.93;5.30;;;4.40;68.30;;;;;;2515221;54;20958;-82
2023/02/15 03:37:47;;;;;;;10.75;5.30;;;4.40;68.20;;;;;;2515660;54;21444;-83
2023/02/15 03:45:11;;;;;;;10.32;5.32;;;4.40;67.90;;;;;;2517471;54;20917;-83
2023/02/15 03:47:40;;;;;;;15.18;5.87;;;4.40;67.70;;;;;;2516526;54;21878;-83
2023/02/15 03:52:58;;;;;;;11.50;5.20;;;4.30;67.40;;;;;;2516595;54;20929;-82
2023/02/15 03:55:24;;;;;;;10.68;5.70;;;4.30;67.40;;;;;;2517629;54;20981;-81
2023/02/15 04:03:41;;;;;;;8.38;4.68;;;4.20;67.60;;;;;;2517285;54;21053;-82
2023/02/15 04:06:08;;;;;;;7.15;3.92;;;4.20;67.50;;;;;;2517366;54;21315;-83
2023/02/15 04:11:19;;;;;;;9.25;4.80;;;4.20;67.80;;;;;;2517744;54;20950;-84
2023/02/15 04:13:45;;;;;;;11.45;5.35;;;4.10;67.70;;;;;;2285736;54;20898;-83
2023/02/15 04:16:12;;;;;;;8.85;4.97;;;4.10;67.80;;;;;;2517362;54;20922;-82
2023/02/15 04:26:58;;;;;;;8.98;5.10;;;4.10;67.90;;;;;;2511381;54;20934;-83
2023/02/15 04:29:24;;;;;;;9.88;5.30;;;4.10;67.90;;;;;;2280389;54;20938;-82
2023/02/15 04:31:51;;;;;;;10.35;5.00;;;4.10;68.00;;;;;;2511448;54;20958;-83
2023/02/15 04:34:18;;;;;;;9.80;5.28;;;4.10;68.00;;;;;;2511863;54;21029;-82
2023/02/15 04:36:45;;;;;;;10.60;5.45;;;4.10;67.80;;;;;;2511307;54;21941;-83
2023/02/15 04:39:14;;;;;;;12.05;5.40;;;4.10;67.80;;;;;;2512036;54;20953;-82
2023/02/15 04:41:41;;;;;;;11.27;4.87;;;4.10;67.60;;;;;;2511772;54;20937;-83
2023/02/15 04:44:07;;;;;;;12.73;4.90;;;4.10;67.50;;;;;;2512412;54;20930;-84
2023/02/15 04:46:34;;;;;;;9.25;5.00;;;4.10;67.50;;;;;;2512252;54;22078;-82
2023/02/15 04:49:01;;;;;;;8.77;5.00;;;4.10;67.20;;;;;;2511294;54;21717;-83
2023/02/15 04:51:28;;;;;;;10.30;5.28;;;4.00;67.80;;;;;;2509418;53;21053;-83
2023/02/15 04:53:57;;;;;;;11.40;5.47;;;4.00;67.00;;;;;;2506784;54;21017;-83
2023/02/15 04:56:24;;;;;;;13.40;5.40;;;4.00;67.10;;;;;;2507288;54;20987;-83
2023/02/15 04:58:50;;;;;;;11.93;6.28;;;3.90;67.00;;;;;;2506067;54;20925;-83
2023/02/15 05:01:17;;;;;;;10.40;5.50;;;3.90;67.10;;;;;;2508123;54;20930;-83
2023/02/15 05:03:43;;;;;;;10.00;5.20;;;3.90;67.20;;;;;;2506250;54;20937;-83
2023/02/15 05:06:10;;;;;;;8.50;4.97;;;3.90;67.30;;;;;;2505995;54;21092;-84
2023/02/15 05:08:37;;;;;;;9.00;4.82;;;3.70;67.00;;;;;;2506029;54;22007;-84
2023/02/15 05:11:03;;;;;;;10.70;5.32;;;4.00;67.60;;;;;;2505706;54;22065;-83
2023/02/15 05:13:30;;;;;;;8.95;5.05;;;4.00;67.70;;;;;;2506470;54;20982;-83
2023/02/15 05:15:57;;;;;;;9.43;5.00;;;3.90;67.70;;;;;;2503695;54;20906;-83
2023/02/15 05:18:24;;;;;;;9.55;5.20;;;3.90;67.70;;;;;;2505447;54;20966;-84
2023/02/15 05:20:50;;;;;;;9.70;5.47;;;3.90;67.70;;;;;;2504979;54;20933;-84
2023/02/15 05:23:17;;;;;;;10.60;6.03;;;3.90;67.70;;;;;;2506470;54;20965;-83
2023/02/15 05:28:35;;;;;;;9.02;4.72;;;3.90;67.50;;;;;;2505905;54;20910;-83
2023/02/15 05:31:19;;;;;;;10.45;5.60;;;3.90;67.50;;;;;;2506147;54;20930;-83
2023/02/15 05:33:46;;;;;;;9.80;5.20;;;3.90;67.40;;;;;;2277266;54;22106;-83
2023/02/15 05:36:12;;;;;;;9.52;4.97;;;3.70;67.10;;;;;;2507440;54;21021;-82
2023/02/15 05:38:39;;;;;;;13.68;7.72;;;3.90;67.40;;;;;;2507991;54;21930;-84
2023/02/15 05:41:06;;;;;;;12.80;7.40;;;3.90;67.50;;;;;;2508042;54;20929;-83
2023/02/15 05:43:33;;;;;;;11.82;6.03;;;4.00;67.70;;;;;;2508576;54;21438;-83
2023/02/15 05:45:59;;;;;;;16.37;6.70;;;3.80;67.40;;;;;;2506452;54;21027;-82
2023/02/15 05:48:27;;;;;;;12.27;6.72;;;3.90;67.50;;;;;;2507193;54;21028;-83
2023/02/15 05:51:07;;;;;;;12.82;7.37;;;3.90;67.50;;;;;;2507179;54;20966;-83
2023/02/15 05:53:35;;;;;;;14.70;6.80;;;3.90;67.50;;;;;;2507728;54;21488;-83
2023/02/15 05:56:02;;;;;;;9.07;5.30;;;3.80;67.30;;;;;;2508323;54;20886;-84
2023/02/15 05:58:30;;;;;;;8.93;5.15;;;3.80;67.30;;;;;;2507999;54;21096;-86
2023/02/15 06:00:57;;;;;;;10.05;5.20;;;3.80;67.30;;;;;;2507293;54;21478;-84
2023/02/15 06:03:25;;;;;;;10.82;6.25;;;3.80;67.30;;;;;;2508332;54;20934;-83
2023/02/15 06:05:52;;;;;;;9.75;4.80;;;3.80;67.20;;;;;;2506868;54;20910;-83
2023/02/15 06:08:18;;;;;;;10.60;5.93;;;3.80;67.20;;;;;;2507909;54;20937;-83
2023/02/15 06:10:46;;;;;;;9.88;5.70;;;3.70;67.00;;;;;;2507430;54;21040;-84
2023/02/15 06:13:13;;;;;;;10.07;5.57;;;3.70;67.00;;;;;;2507854;54;21463;-84
2023/02/15 06:15:40;;;;;;;13.38;5.75;;;3.70;67.00;;;;;;2281183;54;21015;-83
2023/02/15 06:18:06;;;;;;;9.73;5.00;;;3.70;67.00;;;;;;2507991;54;21014;-84
2023/02/15 06:20:32;;;;;;;10.45;5.50;;;3.70;67.20;;;;;;2508028;54;20937;-83
2023/02/15 06:22:59;;;;;;;8.73;4.78;;;3.70;67.20;;;;;;2507530;54;21959;-83
2023/02/15 06:25:25;;;;;;;12.45;5.57;;;3.70;67.50;;;;;;2508160;54;20969;-83
2023/02/15 06:27:52;;;;;;;11.43;5.60;;;3.70;67.00;;;;;;2508138;54;21508;-82
2023/02/15 06:30:18;;;;;;;15.77;5.95;;;3.60;66.90;;;;;;2508797;54;21029;-82
2023/02/15 06:32:45;;;;;;;10.38;5.10;;;3.60;66.90;;;;;;2508203;54;21060;-83
2023/02/15 06:35:12;;;;;;;11.65;6.05;;;3.60;66.60;;;;;;2276906;54;21021;-84
2023/02/15 06:37:38;;;;;;;11.93;6.37;;;3.60;67.30;;;;;;2508753;54;21369;-84
2023/02/15 06:40:06;;;;;;;13.48;7.07;;;3.50;66.80;;;;;;2508619;54;21036;-84
2023/02/15 06:42:32;;;;;;;14.50;6.45;;;3.50;67.10;;;;;;2509466;54;20918;-83
2023/02/15 06:45:00;;;;;;;14.10;6.93;;;3.50;67.10;;;;;;2509105;54;20938;-83
2023/02/15 06:47:26;;;;;;;11.45;6.12;;;3.50;67.20;;;;;;2509067;54;20934;-83
2023/02/15 06:49:52;;;;;;;13.27;6.30;;;3.30;67.00;;;;;;2508970;54;21050;-82
2023/02/15 06:52:19;;;;;;;10.20;5.40;;;3.50;67.30;;;;;;2510185;54;20953;-83
2023/02/15 06:54:47;;;;;;;14.27;7.22;;;3.50;67.50;;;;;;2509602;54;20954;-83
2023/02/15 06:57:14;;;;;;;13.98;8.18;;;3.50;67.40;;;;;;2511852;54;20999;-83
2023/02/15 06:59:41;;;;;;;14.20;6.62;;;3.50;67.50;;;;;;2510199;54;20886;-82
2023/02/15 07:02:09;;;;;;;46.78;16.30;;;3.50;67.40;;;;;;2510689;54;21073;-83
2023/02/15 07:04:36;;;;;;;20.10;9.43;;;3.50;67.50;;;;;;2510999;54;20906;-82
2023/02/15 07:07:02;;;;;;;17.62;8.35;;;3.50;67.30;;;;;;2512995;53;20910;-83
2023/02/15 07:09:29;;;;;;;15.38;7.72;;;3.50;67.40;;;;;;2513452;53;21575;-84
2023/02/15 07:14:40;;;;;;;12.07;6.30;;;3.50;67.50;;;;;;2511479;54;20957;-83
2023/02/15 07:17:06;;;;;;;10.32;5.40;;;3.50;67.50;;;;;;2511208;54;20917;-83
2023/02/15 07:19:44;;;;;;;9.68;5.62;;;3.50;67.60;;;;;;2511438;54;21123;-83
2023/02/15 07:22:10;;;;;;;13.60;7.07;;;3.50;67.50;;;;;;2510038;54;21975;-83
2023/02/15 07:24:37;;;;;;;12.02;5.75;;;3.60;67.80;;;;;;2510470;54;20922;-83
2023/02/15 07:27:03;;;;;;;13.30;6.28;;;3.50;67.80;;;;;;2509960;54;21040;-83
2023/02/15 07:29:29;;;;;;;11.20;6.43;;;3.60;67.80;;;;;;2509836;54;20926;-83
2023/02/15 07:31:56;;;;;;;10.40;5.72;;;3.60;67.90;;;;;;2509308;54;20941;-84
2023/02/15 07:34:22;;;;;;;11.60;6.47;;;3.60;68.00;;;;;;2509595;54;20958;-83
2023/02/15 07:36:50;;;;;;;16.05;7.70;;;3.60;68.10;;;;;;2508924;54;21323;-82
2023/02/15 07:39:17;;;;;;;11.48;6.40;;;3.60;68.00;;;;;;2508971;54;21014;-83
2023/02/15 07:41:46;;;;;;;14.68;7.05;;;3.60;68.00;;;;;;2277403;54;22061;-83
2023/02/15 07:44:13;;;;;;;19.92;9.98;;;3.60;68.00;;;;;;2508725;54;20914;-84
2023/02/15 07:46:39;;;;;;;18.45;9.55;;;3.70;68.10;;;;;;2277423;54;20957;-84
2023/02/15 07:49:06;;;;;;;17.17;8.55;;;3.70;68.00;;;;;;2508354;54;20950;-83
2023/02/15 07:51:32;;;;;;;14.43;7.68;;;3.70;67.90;;;;;;2508736;54;21092;-84
2023/02/15 07:53:59;;;;;;;12.82;7.37;;;3.50;67.50;;;;;;2508233;54;20953;-83
2023/02/15 07:56:25;;;;;;;14.15;7.35;;;3.70;67.70;;;;;;2508398;54;22233;-84
2023/02/15 07:58:52;;;;;;;10.98;6.10;;;3.70;67.50;;;;;;2507775;54;21714;-83
2023/02/15 08:01:20;;;;;;;11.00;6.18;;;3.70;67.60;;;;;;2507873;54;20941;-83
2023/02/15 08:03:46;;;;;;;11.35;6.75;;;3.70;67.70;;;;;;2508630;54;20914;-83
2023/02/15 08:06:13;;;;;;;12.95;7.03;;;3.70;67.80;;;;;;2508013;54;20982;-83
2023/02/15 08:08:40;;;;;;;11.35;6.28;;;3.80;67.70;;;;;;2508539;54;20921;-83
2023/02/15 08:11:25;;;;;;;12.40;6.20;;;3.70;67.60;;;;;;2507713;54;21077;-83
2023/02/15 08:13:58;;;;;;;11.40;5.80;;;3.70;67.70;;;;;;2507552;54;21519;-83
2023/02/15 08:16:28;;;;;;;20.02;11.45;;;3.70;67.70;;;;;;2508330;54;21403;-83
2023/02/15 08:18:54;;;;;;;14.00;8.68;;;3.70;67.80;;;;;;2507117;54;20958;-83
2023/02/15 08:21:21;;;;;;;10.88;6.30;;;3.80;67.90;;;;;;2508196;54;20930;-84
2023/02/15 08:23:51;;;;;;;13.18;6.75;;;3.80;68.00;;;;;;2507863;54;20945;-83
2023/02/15 08:26:17;;;;;;;13.43;7.57;;;3.80;67.90;;;;;;2507507;54;21017;-82
2023/02/15 08:28:46;;;;;;;12.40;7.00;;;3.80;67.90;;;;;;2508471;54;20974;-82
2023/02/15 08:31:15;;;;;;;16.05;7.60;;;3.80;67.70;;;;;;2508330;54;21057;-84
2023/02/15 08:33:42;;;;;;;12.18;7.05;;;3.80;67.60;;;;;;2508018;54;20922;-84
2023/02/15 08:36:13;;;;;;;13.85;7.18;;;3.90;67.70;;;;;;2508350;54;20891;-83
2023/02/15 08:38:40;;;;;;;12.85;6.87;;;3.70;67.30;;;;;;2507136;54;21439;-83
2023/02/15 08:41:20;;;;;;;9.40;5.87;;;3.80;67.20;;;;;;2507251;54;20958;-82
2023/02/15 08:43:48;;;;;;;11.73;6.15;;;3.90;67.60;;;;;;2508535;54;20910;-83
2023/02/15 08:46:15;;;;;;;13.15;7.05;;;3.90;67.70;;;;;;2507532;54;21485;-83
2023/02/15 08:48:42;;;;;;;12.02;6.20;;;3.90;67.80;;;;;;2508276;54;20959;-84
2023/02/15 08:51:10;;;;;;;10.52;5.70;;;3.90;67.80;;;;;;2507528;54;20945;-83
2023/02/15 08:53:38;;;;;;;11.75;6.68;;;3.90;68.00;;;;;;2508036;54;22072;-84
2023/02/15 08:56:05;;;;;;;8.98;5.30;;;3.90;68.00;;;;;;2506965;54;20946;-85
2023/02/15 08:58:31;;;;;;;9.20;5.22;;;4.00;68.50;;;;;;2508046;54;20934;-83
2023/02/15 09:00:58;;;;;;;9.40;5.35;;;4.00;67.80;;;;;;2507330;54;21413;-83
2023/02/15 09:03:25;;;;;;;11.95;6.78;;;4.00;68.00;;;;;;2508233;54;21072;-83
2023/02/15 09:05:57;;;;;;;11.48;6.50;;;3.80;67.70;;;;;;2506703;54;21440;-84
2023/02/15 09:08:23;;;;;;;;;;;4.00;68.00;;;;;;2512272;54;21073;-84
2023/02/15 09:10:50;;;;;;;10.38;5.30;;;4.10;67.50;;;;;;2508040;54;20110;-83
2023/02/15 09:13:16;;;;;;;10.00;6.15;;;3.90;67.80;;;;;;2507867;54;21340;-84
2023/02/15 09:15:43;;;;;;;10.88;5.90;;;3.90;67.80;;;;;;2508633;54;20999;-83
2023/02/15 09:18:09;;;;;;;13.70;7.20;;;4.10;68.00;;;;;;2507449;54;22100;-84
2023/02/15 09:20:36;;;;;;;10.93;5.90;;;4.20;67.90;;;;;;2507863;54;20965;-83
2023/02/15 09:23:03;;;;;;;11.40;6.40;;;4.10;67.80;;;;;;2507465;54;20985;-84
2023/02/15 09:25:29;;;;;;;12.75;6.93;;;4.20;68.00;;;;;;2507991;54;20958;-84
2023/02/15 09:27:55;;;;;;;13.23;7.90;;;4.10;68.00;;;;;;2507595;54;20958;-84
2023/02/15 09:30:22;;;;;;;14.52;7.57;;;4.20;68.20;;;;;;2508370;54;21022;-83
2023/02/15 09:32:48;;;;;;;13.80;7.72;;;4.20;68.00;;;;;;2507906;54;20958;-84
2023/02/15 09:35:18;;;;;;;13.13;7.68;;;4.10;67.80;;;;;;2507889;54;20993;-84
2023/02/15 09:37:44;;;;;;;10.30;6.07;;;4.30;68.20;;;;;;2507875;54;20929;-83
2023/02/15 09:40:13;;;;;;;12.63;6.95;;;4.30;68.00;;;;;;2507366;54;20938;-84
2023/02/15 09:46:02;;;;;;;14.25;7.85;;;4.20;68.30;;;;;;2508096;54;20946;-84
2023/02/15 09:48:48;;;;;;;14.30;6.97;;;4.40;68.30;;;;;;2507706;54;20926;-84
2023/02/15 09:51:46;;;;;;;12.85;7.03;;;4.50;68.30;;;;;;2508127;54;22016;-83
2023/02/15 09:57:59;;;;;;;13.05;6.85;;;4.50;68.40;;;;;;2507560;54;20984;-84
2023/02/15 10:00:58;;;;;;;10.30;5.43;;;4.60;68.50;;;;;;2507512;54;20926;-83
2023/02/15 10:03:55;;;;;;;10.05;5.20;;;4.70;68.80;;;;;;2507882;54;20918;-84
2023/02/15 10:06:56;;;;;;;21.02;9.07;;;4.70;69.00;;;;;;2506561;54;21044;-84
2023/02/15 10:10:00;;;;;;;15.50;7.37;;;4.80;69.20;;;;;;2507046;54;20941;-82
2023/02/15 10:12:49;;;;;;;13.18;7.93;;;4.80;69.10;;;;;;2275806;54;20974;-84
2023/02/15 10:15:41;;;;;;;12.25;6.87;;;4.90;69.10;;;;;;2507220;54;20922;-84
2023/02/15 10:21:13;;;;;;;12.40;6.90;;;4.90;69.10;;;;;;2506217;54;21005;-84
2023/02/15 10:24:49;;;;;;;12.95;6.62;;;5.00;69.10;;;;;;2507046;54;20985;-84
2023/02/15 10:27:19;;;;;;;12.63;7.15;;;5.20;69.20;;;;;;2279670;54;21586;-84
2023/02/15 10:30:04;;;;;;;15.93;8.60;;;5.20;69.40;;;;;;2506834;54;21058;-84
2023/02/15 10:32:32;;;;;;;14.27;8.45;;;5.20;69.00;;;;;;2507915;54;21510;-84
2023/02/15 10:36:39;;;;;;;12.88;7.97;;;5.30;69.00;;;;;;2506527;54;21513;-82
2023/02/15 10:45:13;;;;;;;11.38;6.47;;;5.30;68.90;;;;;;2506637;54;20954;-84
2023/02/15 10:49:15;;;;;;;10.35;4.97;;;5.50;68.50;;;;;;2506861;54;20934;-84
2023/02/15 10:52:10;;;;;;;10.77;6.05;;;5.50;68.90;;;;;;2506587;54;20957;-84
2023/02/15 10:54:54;;;;;;;10.25;5.75;;;5.60;69.00;;;;;;2506724;54;22564;-84
2023/02/15 11:01:00;;;;;;;11.07;6.10;;;5.60;69.00;;;;;;2506614;54;21500;-84
2023/02/15 11:03:55;;;;;;;10.05;5.28;;;5.60;69.10;;;;;;2506816;54;20982;-84
2023/02/15 11:06:23;;;;;;;11.90;6.70;;;5.80;69.80;;;;;;2506215;54;20954;-83
2023/02/15 11:08:56;;;;;;;11.40;6.37;;;5.80;69.20;;;;;;2507224;54;20922;-84
2023/02/15 11:11:32;;;;;;;12.52;7.37;;;5.70;69.10;;;;;;2507761;54;20979;-83
2023/02/15 11:14:05;;;;;;;16.30;8.30;;;5.90;69.40;;;;;;2506492;54;21990;-83
2023/02/15 11:16:33;;;;;;;11.68;6.87;;;5.90;69.50;;;;;;2276205;54;20977;-83
2023/02/15 11:19:32;;;;;;;14.23;8.38;;;5.90;69.50;;;;;;2506571;54;22002;-84
2023/02/15 11:22:00;;;;;;;14.13;8.77;;;6.00;69.50;;;;;;2506286;54;20970;-83
2023/02/15 11:24:28;;;;;;;12.37;8.23;;;6.10;69.60;;;;;;2506689;54;20977;-84
2023/02/15 11:27:03;;;;;;;14.18;8.10;;;6.10;69.70;;;;;;2506723;54;20945;-86
2023/02/15 11:29:52;;;;;;;13.43;8.40;;;6.20;69.70;;;;;;2276752;54;21470;-83
2023/02/15 11:32:33;;;;;;;13.35;8.18;;;6.10;69.60;;;;;;2507001;54;20894;-84
2023/02/15 11:35:40;;;;;;;13.70;8.57;;;6.30;69.70;;;;;;2275287;54;21089;-83
2023/02/15 11:38:21;;;;;;;12.73;7.72;;;6.30;69.10;;;;;;2506183;54;21073;-83
2023/02/15 11:40:49;;;;;;;14.43;8.07;;;6.40;69.40;;;;;;2506668;54;20931;-83
2023/02/15 11:44:27;;;;;;;12.50;7.28;;;6.40;69.30;;;;;;2506203;54;20942;-84
2023/02/15 11:46:56;;;;;;;15.48;9.90;;;6.30;68.60;;;;;;2279148;54;21010;-84
2023/02/15 11:49:43;;;;;;;17.52;10.40;;;6.30;69.20;;;;;;2506328;54;21001;-84
2023/02/15 11:52:16;;;;;;;17.77;10.27;;;6.50;69.20;;;;;;2505114;54;21007;-83
2023/02/15 11:54:44;;;;;;;16.00;9.27;;;6.60;69.60;;;;;;2505330;54;20964;-83
2023/02/15 11:57:32;;;;;;;14.52;8.82;;;6.70;69.70;;;;;;2503004;54;20949;-83
2023/02/15 12:00:11;;;;;;;16.27;10.15;;;6.70;69.70;;;;;;2503496;54;20993;-83
2023/02/15 12:02:37;;;;;;;18.02;10.48;;;6.70;69.70;;;;;;2505376;54;20997;-84
2023/02/15 12:05:26;;;;;;;17.42;10.30;;;6.80;69.80;;;;;;2503809;54;21329;-83
2023/02/15 12:08:03;;;;;;;26.73;13.85;;;6.90;69.90;;;;;;2504993;54;21057;-82
2023/02/15 12:11:15;;;;;;;19.48;11.65;;;6.90;69.80;;;;;;2506067;54;20938;-83
2023/02/15 12:13:58;;;;;;;18.00;10.95;;;7.10;69.80;;;;;;2506293;54;20982;-83
2023/02/15 12:16:24;;;;;;;16.90;10.18;;;7.00;69.50;;;;;;2504513;54;20962;-84
2023/02/15 12:18:52;;;;;;;17.35;9.68;;;7.00;69.60;;;;;;2504987;54;21029;-83
2023/02/15 12:21:29;;;;;;;17.62;11.20;;;7.10;69.50;;;;;;2505145;54;21473;-84
2023/02/15 12:24:03;;;;;;;15.63;9.43;;;7.10;69.40;;;;;;2276289;54;20906;-84
2023/02/15 12:26:34;;;;;;;16.60;9.57;;;7.20;69.60;;;;;;2506916;54;20929;-83
2023/02/15 12:29:12;;;;;;;15.52;9.48;;;7.20;69.50;;;;;;2506772;54;21458;-84
2023/02/15 12:31:46;;;;;;;18.27;11.15;;;7.30;69.40;;;;;;2507522;54;20930;-84
2023/02/15 12:34:18;;;;;;;18.05;10.18;;;7.30;69.30;;;;;;2505642;54;20981;-82
2023/02/15 12:36:50;;;;;;;17.55;10.05;;;7.30;69.40;;;;;;2506200;54;20945;-84
2023/02/15 12:39:22;;;;;;;14.15;8.30;;;7.20;69.30;;;;;;2506040;54;20918;-84
2023/02/15 12:42:21;;;;;;;15.48;9.30;;;7.40;69.30;;;;;;2276676;54;22318;-84
2023/02/15 12:45:01;;;;;;;16.85;9.45;;;7.50;68.80;;;;;;2504773;54;22087;-84
2023/02/15 12:47:29;;;;;;;17.77;9.88;;;7.50;69.20;;;;;;2505369;54;20947;-83
2023/02/15 12:51:02;;;;;;;16.85;10.38;;;7.50;69.20;;;;;;2505273;54;20987;-83
2023/02/15 12:53:32;;;;;;;15.38;8.68;;;7.60;68.90;;;;;;2504518;54;20910;-84
2023/02/15 12:56:00;;;;;;;15.73;9.40;;;7.60;69.20;;;;;;2504895;54;20942;-84
2023/02/15 12:58:34;;;;;;;14.20;8.48;;;7.60;69.20;;;;;;2508608;54;20942;-85
2023/02/15 13:01:15;;;;;;;16.42;9.13;;;7.60;69.20;;;;;;2512292;53;21417;-84
2023/02/15 13:04:01;;;;;;;15.13;8.40;;;7.70;69.20;;;;;;2512025;53;20890;-83
2023/02/15 13:06:28;;;;;;;17.55;10.45;;;7.70;69.10;;;;;;2511564;54;21370;-85
2023/02/15 13:09:04;;;;;;;19.58;10.90;;;7.70;69.40;;;;;;2513707;54;21001;-83
2023/02/15 13:11:33;;;;;;;15.35;9.32;;;7.80;69.50;;;;;;2510792;53;20914;-85
2023/02/15 13:14:22;;;;;;;14.82;8.40;;;7.80;69.00;;;;;;2512108;54;20945;-84
2023/02/15 13:16:50;;;;;;;14.80;8.40;;;7.80;69.00;;;;;;2511563;54;20973;-84
2023/02/15 13:19:18;;;;;;;15.32;8.48;;;7.90;69.30;;;;;;2509699;54;21009;-84
2023/02/15 13:21:48;;;;;;;15.60;9.00;;;7.90;69.10;;;;;;2510918;54;20886;-84
2023/02/15 13:24:37;;;;;;;15.75;9.57;;;7.90;68.90;;;;;;2511024;54;20945;-85
2023/02/15 13:27:03;;;;;;;16.02;8.80;;;7.90;68.70;;;;;;2509497;54;20906;-85
2023/02/15 13:29:46;;;;;;;13.18;7.60;;;7.90;68.40;;;;;;2509967;53;20914;-85
2023/02/15 13:32:25;;;;;;;14.87;8.63;;;7.90;68.40;;;;;;2509973;53;20930;-85
2023/02/15 13:34:54;;;;;;;15.02;8.80;;;7.90;68.30;;;;;;2510410;53;20954;-84
2023/02/15 13:37:37;;;;;;;17.00;9.73;;;7.90;68.40;;;;;;2510771;53;20921;-85
2023/02/15 13:40:15;;;;;;;16.23;8.70;;;7.90;68.40;;;;;;2510158;53;21464;-85
2023/02/15 13:42:46;;;;;;;15.15;8.98;;;7.80;67.90;;;;;;2510648;53;20902;-85
2023/02/15 13:48:46;;;;;;;16.25;9.57;;;7.80;68.70;;;;;;2278016;54;20997;-85
2023/02/15 13:52:05;;;;;;;14.57;8.00;;;7.80;67.40;;;;;;2510465;54;20969;-85
2023/02/15 13:55:03;;;;;;;12.13;7.20;;;7.70;67.70;;;;;;2510771;54;21029;-86
2023/02/15 13:57:44;;;;;;;14.10;7.87;;;7.70;67.70;;;;;;2511736;53;20902;-85
2023/02/15 14:04:41;;;;;;;15.40;9.02;;;7.70;68.20;;;;;;2510516;53;20953;-85
2023/02/15 14:08:07;;;;;;;14.50;7.03;;;7.70;67.60;;;;;;2512111;53;20918;-84
2023/02/15 14:10:57;;;;;;;14.50;8.15;;;7.60;67.40;;;;;;2512033;53;21072;-84
2023/02/15 14:13:47;;;;;;;17.52;8.70;;;7.60;67.90;;;;;;2512546;53;20938;-84
2023/02/15 14:16:35;;;;;;;16.95;9.68;;;7.50;67.70;;;;;;2514073;53;20898;-84
2023/02/15 14:19:51;;;;;;;15.30;9.35;;;7.50;67.70;;;;;;2279818;54;20882;-84